Grove Center, Kentucky
Current Conditions -  °F | °C
As of 5:55 AM on Saturday 25 Oct 2014 (Local Time) from K5M9 Reporting Station
Overcast Overcast  
Wind Chill: 55°   Ceiling: 4200
Heat Index: 55°   Visibility: 7mi
Dew Point: 53°   Wind: 3mph
Humidity: 94%   Direction: 210°SSW
Pressure: 30.04"   Gusts: NA
Location:  37.6418°N, 87.8654°W
Report Text: K5M9 251055Z AUTO 21003KT 7SM BKN042 OVC055 13/12 A3004 RMK AO2 T01260117
Loading
Personal Weather Stations






























Interactive Weather Map
Tropical Storm Tracking
New forecast layout! Learn more

10-Day Weather Forecast

Advertisements
Track Severe Weather on mobile